< < Back
Terminal Aerodrome Forecast


Current Version              Previous Versions:   1  2  3  4  5  6  7  8  9  

Terminal Aerodrome Forecast

680
FTUS42 KJAX 191720
TAFJAX
TAF
KJAX 191720Z 1918/2018 15012KT P6SM VCTS FEW030CB BKN200 BKN250
     FM191900 21010G15KT P6SM VCTS SCT030CB BKN050 OVC200
      TEMPO 1919/1923 VRB15G25KT 3SM TSRA BKN025CB OVC050
     FM192300 18005KT 5SM RA BR OVC015
     FM200400 18006KT P6SM OVC015
     FM200800 21006KT P6SM OVC005
     FM201000 21006KT 4SM BR OVC005=



Latest METAR

509
SAUS80 KWBC 192200
MTRJAX
METAR KJAX 192156Z 28013G20KT 10SM FEW016 SCT045 BKN090 BKN160 OVC240
22/19 A2987 RMK AO2 PK WND 28042/2118 SLP115 T02170189 $


USA.gov is the U.S. government's official web portal to all federal, state and local government web resources and services.